sensor_id;sensor_type;location;lat;lon;timestamp;P1;durP1;ratioP1;P2;durP2;ratioP2
8909;SDS011;4490;49.072;8.804;2023-02-12T00:02:22;38.20;;;25.43;;
8909;SDS011;4490;49.072;8.804;2023-02-12T00:04:48;35.90;;;25.47;;
8909;SDS011;4490;49.072;8.804;2023-02-12T00:07:13;33.43;;;24.70;;
8909;SDS011;4490;49.072;8.804;2023-02-12T00:09:39;34.13;;;25.63;;
8909;SDS011;4490;49.072;8.804;2023-02-12T00:12:05;36.03;;;25.57;;
8909;SDS011;4490;49.072;8.804;2023-02-12T00:14:31;39.00;;;27.80;;
8909;SDS011;4490;49.072;8.804;2023-02-12T00:16:56;38.77;;;27.93;;
8909;SDS011;4490;49.072;8.804;2023-02-12T00:19:22;35.27;;;25.07;;
8909;SDS011;4490;49.072;8.804;2023-02-12T00:21:48;38.70;;;26.23;;
8909;SDS011;4490;49.072;8.804;2023-02-12T00:24:14;37.00;;;25.20;;
8909;SDS011;4490;49.072;8.804;2023-02-12T00:26:39;31.57;;;23.87;;
8909;SDS011;4490;49.072;8.804;2023-02-12T00:29:05;29.67;;;23.33;;
8909;SDS011;4490;49.072;8.804;2023-02-12T00:31:30;31.43;;;23.20;;
8909;SDS011;4490;49.072;8.804;2023-02-12T00:33:56;32.07;;;23.63;;
8909;SDS011;4490;49.072;8.804;2023-02-12T00:36:24;34.40;;;23.10;;
8909;SDS011;4490;49.072;8.804;2023-02-12T00:38:51;37.30;;;24.77;;
8909;SDS011;4490;49.072;8.804;2023-02-12T00:41:19;34.80;;;25.27;;
8909;SDS011;4490;49.072;8.804;2023-02-12T00:43:45;33.93;;;25.17;;
8909;SDS011;4490;49.072;8.804;2023-02-12T00:46:11;34.63;;;25.37;;
8909;SDS011;4490;49.072;8.804;2023-02-12T00:48:37;36.87;;;25.23;;
8909;SDS011;4490;49.072;8.804;2023-02-12T00:51:03;33.13;;;23.87;;
8909;SDS011;4490;49.072;8.804;2023-02-12T00:53:29;29.87;;;23.03;;
8909;SDS011;4490;49.072;8.804;2023-02-12T00:55:55;29.43;;;22.53;;
8909;SDS011;4490;49.072;8.804;2023-02-12T00:58:21;30.43;;;22.13;;
8909;SDS011;4490;49.072;8.804;2023-02-12T01:00:47;29.60;;;22.53;;
8909;SDS011;4490;49.072;8.804;2023-02-12T01:03:13;36.13;;;23.83;;
8909;SDS011;4490;49.072;8.804;2023-02-12T01:05:39;32.30;;;23.47;;
8909;SDS011;4490;49.072;8.804;2023-02-12T01:08:05;35.33;;;25.17;;
8909;SDS011;4490;49.072;8.804;2023-02-12T01:10:31;33.43;;;24.27;;
8909;SDS011;4490;49.072;8.804;2023-02-12T01:12:57;36.67;;;25.73;;
8909;SDS011;4490;49.072;8.804;2023-02-12T01:15:22;35.93;;;25.77;;
8909;SDS011;4490;49.072;8.804;2023-02-12T01:17:51;36.87;;;26.03;;
8909;SDS011;4490;49.072;8.804;2023-02-12T01:20:18;32.97;;;24.83;;
8909;SDS011;4490;49.072;8.804;2023-02-12T01:22:46;32.37;;;24.37;;
8909;SDS011;4490;49.072;8.804;2023-02-12T01:25:12;35.13;;;25.60;;
8909;SDS011;4490;49.072;8.804;2023-02-12T01:27:38;31.70;;;24.17;;
8909;SDS011;4490;49.072;8.804;2023-02-12T01:30:04;29.13;;;23.53;;
8909;SDS011;4490;49.072;8.804;2023-02-12T01:32:32;37.33;;;24.43;;
8909;SDS011;4490;49.072;8.804;2023-02-12T01:34:58;33.47;;;24.43;;
8909;SDS011;4490;49.072;8.804;2023-02-12T01:37:24;36.40;;;23.83;;
8909;SDS011;4490;49.072;8.804;2023-02-12T01:39:49;31.97;;;23.37;;
8909;SDS011;4490;49.072;8.804;2023-02-12T01:42:15;32.97;;;23.17;;
8909;SDS011;4490;49.072;8.804;2023-02-12T01:47:54;32.53;;;23.90;;
8909;SDS011;4490;49.072;8.804;2023-02-12T01:50:21;34.73;;;25.47;;
8909;SDS011;4490;49.072;8.804;2023-02-12T01:52:47;34.63;;;23.43;;
8909;SDS011;4490;49.072;8.804;2023-02-12T01:55:18;28.93;;;22.40;;
8909;SDS011;4490;49.072;8.804;2023-02-12T01:57:44;33.33;;;23.87;;
8909;SDS011;4490;49.072;8.804;2023-02-12T02:00:13;34.57;;;25.17;;
8909;SDS011;4490;49.072;8.804;2023-02-12T02:02:53;37.30;;;25.40;;
8909;SDS011;4490;49.072;8.804;2023-02-12T02:05:37;36.17;;;24.53;;
8909;SDS011;4490;49.072;8.804;2023-02-12T02:08:08;34.40;;;24.77;;
8909;SDS011;4490;49.072;8.804;2023-02-12T02:10:34;37.60;;;24.60;;
8909;SDS011;4490;49.072;8.804;2023-02-12T02:12:59;36.33;;;24.87;;
8909;SDS011;4490;49.072;8.804;2023-02-12T02:15:46;35.00;;;24.00;;
8909;SDS011;4490;49.072;8.804;2023-02-12T02:18:21;35.20;;;25.23;;
8909;SDS011;4490;49.072;8.804;2023-02-12T02:32:26;31.83;;;23.20;;
8909;SDS011;4490;49.072;8.804;2023-02-12T02:40:09;33.27;;;25.17;;
8909;SDS011;4490;49.072;8.804;2023-02-12T02:45:27;33.23;;;24.87;;
8909;SDS011;4490;49.072;8.804;2023-02-12T02:48:17;35.60;;;25.70;;
8909;SDS011;4490;49.072;8.804;2023-02-12T02:50:48;35.87;;;25.63;;
8909;SDS011;4490;49.072;8.804;2023-02-12T02:53:21;34.50;;;24.63;;
8909;SDS011;4490;49.072;8.804;2023-02-12T02:55:54;34.93;;;24.43;;
8909;SDS011;4490;49.072;8.804;2023-02-12T02:58:26;32.93;;;24.47;;
8909;SDS011;4490;49.072;8.804;2023-02-12T03:09:26;30.37;;;22.90;;
8909;SDS011;4490;49.072;8.804;2023-02-12T03:12:21;35.97;;;25.00;;
8909;SDS011;4490;49.072;8.804;2023-02-12T03:15:38;37.50;;;24.57;;
8909;SDS011;4490;49.072;8.804;2023-02-12T03:17:46;36.10;;;25.23;;
8909;SDS011;4490;49.072;8.804;2023-02-12T03:22:49;33.37;;;24.03;;
8909;SDS011;4490;49.072;8.804;2023-02-12T03:28:29;35.87;;;24.17;;
8909;SDS011;4490;49.072;8.804;2023-02-12T03:36:47;32.97;;;22.87;;
8909;SDS011;4490;49.072;8.804;2023-02-12T03:42:19;32.60;;;22.70;;
8909;SDS011;4490;49.072;8.804;2023-02-12T03:45:09;33.67;;;22.70;;
8909;SDS011;4490;49.072;8.804;2023-02-12T03:47:46;33.23;;;23.37;;
8909;SDS011;4490;49.072;8.804;2023-02-12T03:50:28;33.03;;;24.03;;
8909;SDS011;4490;49.072;8.804;2023-02-12T03:53:08;30.90;;;23.07;;
8909;SDS011;4490;49.072;8.804;2023-02-12T03:55:40;32.30;;;23.93;;
8909;SDS011;4490;49.072;8.804;2023-02-12T03:58:08;32.90;;;22.43;;
8909;SDS011;4490;49.072;8.804;2023-02-12T04:00:39;29.73;;;22.30;;
8909;SDS011;4490;49.072;8.804;2023-02-12T04:03:05;30.93;;;23.40;;
8909;SDS011;4490;49.072;8.804;2023-02-12T04:05:31;31.33;;;22.90;;
8909;SDS011;4490;49.072;8.804;2023-02-12T04:07:57;30.73;;;20.87;;
8909;SDS011;4490;49.072;8.804;2023-02-12T04:10:28;27.90;;;21.20;;
8909;SDS011;4490;49.072;8.804;2023-02-12T04:13:10;28.37;;;21.23;;
8909;SDS011;4490;49.072;8.804;2023-02-12T04:16:04;29.60;;;21.60;;
8909;SDS011;4490;49.072;8.804;2023-02-12T04:18:41;30.63;;;21.10;;
8909;SDS011;4490;49.072;8.804;2023-02-12T04:24:08;31.63;;;21.77;;
8909;SDS011;4490;49.072;8.804;2023-02-12T04:29:54;26.93;;;20.20;;
8909;SDS011;4490;49.072;8.804;2023-02-12T04:32:29;29.47;;;20.60;;
8909;SDS011;4490;49.072;8.804;2023-02-12T04:35:04;29.03;;;20.80;;
8909;SDS011;4490;49.072;8.804;2023-02-12T04:37:40;29.50;;;19.83;;
8909;SDS011;4490;49.072;8.804;2023-02-12T04:40:11;30.30;;;21.40;;
8909;SDS011;4490;49.072;8.804;2023-02-12T04:45:09;29.87;;;22.00;;
8909;SDS011;4490;49.072;8.804;2023-02-12T04:47:36;28.83;;;20.43;;
8909;SDS011;4490;49.072;8.804;2023-02-12T04:50:02;32.03;;;22.30;;
8909;SDS011;4490;49.072;8.804;2023-02-12T04:52:28;30.77;;;21.87;;
8909;SDS011;4490;49.072;8.804;2023-02-12T04:54:53;28.80;;;20.97;;
8909;SDS011;4490;49.072;8.804;2023-02-12T04:57:19;30.97;;;22.10;;
8909;SDS011;4490;49.072;8.804;2023-02-12T04:59:45;33.50;;;22.07;;
8909;SDS011;4490;49.072;8.804;2023-02-12T05:02:10;29.33;;;21.03;;
8909;SDS011;4490;49.072;8.804;2023-02-12T05:04:36;33.30;;;22.10;;
8909;SDS011;4490;49.072;8.804;2023-02-12T05:07:01;29.60;;;21.70;;
8909;SDS011;4490;49.072;8.804;2023-02-12T05:09:27;29.90;;;21.83;;
8909;SDS011;4490;49.072;8.804;2023-02-12T05:11:53;30.17;;;21.43;;
8909;SDS011;4490;49.072;8.804;2023-02-12T05:14:18;29.33;;;20.30;;
8909;SDS011;4490;49.072;8.804;2023-02-12T05:16:44;30.27;;;21.37;;
8909;SDS011;4490;49.072;8.804;2023-02-12T05:19:09;32.77;;;23.20;;
8909;SDS011;4490;49.072;8.804;2023-02-12T05:21:36;31.47;;;22.57;;
8909;SDS011;4490;49.072;8.804;2023-02-12T05:24:02;30.50;;;22.67;;
8909;SDS011;4490;49.072;8.804;2023-02-12T05:26:28;35.27;;;23.43;;
8909;SDS011;4490;49.072;8.804;2023-02-12T05:28:54;34.50;;;22.50;;
8909;SDS011;4490;49.072;8.804;2023-02-12T05:31:19;33.60;;;22.50;;
8909;SDS011;4490;49.072;8.804;2023-02-12T05:33:46;29.37;;;21.30;;
8909;SDS011;4490;49.072;8.804;2023-02-12T05:36:13;33.83;;;23.67;;
8909;SDS011;4490;49.072;8.804;2023-02-12T05:38:41;33.73;;;21.93;;
8909;SDS011;4490;49.072;8.804;2023-02-12T05:41:08;30.43;;;22.27;;
8909;SDS011;4490;49.072;8.804;2023-02-12T05:43:36;36.80;;;21.77;;
8909;SDS011;4490;49.072;8.804;2023-02-12T05:46:02;26.90;;;19.47;;
8909;SDS011;4490;49.072;8.804;2023-02-12T05:48:29;29.27;;;19.40;;
8909;SDS011;4490;49.072;8.804;2023-02-12T05:51:12;29.17;;;19.67;;
8909;SDS011;4490;49.072;8.804;2023-02-12T05:53:41;28.40;;;19.23;;
8909;SDS011;4490;49.072;8.804;2023-02-12T05:56:11;28.00;;;19.40;;
8909;SDS011;4490;49.072;8.804;2023-02-12T05:58:50;28.70;;;20.10;;
8909;SDS011;4490;49.072;8.804;2023-02-12T06:01:22;31.60;;;19.47;;
8909;SDS011;4490;49.072;8.804;2023-02-12T06:03:50;31.27;;;21.27;;
8909;SDS011;4490;49.072;8.804;2023-02-12T06:06:15;31.00;;;20.43;;
8909;SDS011;4490;49.072;8.804;2023-02-12T06:08:41;32.67;;;20.53;;
8909;SDS011;4490;49.072;8.804;2023-02-12T06:11:09;29.30;;;19.47;;
8909;SDS011;4490;49.072;8.804;2023-02-12T06:13:37;28.83;;;19.80;;
8909;SDS011;4490;49.072;8.804;2023-02-12T06:16:02;31.13;;;20.40;;
8909;SDS011;4490;49.072;8.804;2023-02-12T06:18:29;27.10;;;19.93;;
8909;SDS011;4490;49.072;8.804;2023-02-12T06:20:54;29.57;;;21.07;;
8909;SDS011;4490;49.072;8.804;2023-02-12T06:23:21;33.33;;;21.37;;
8909;SDS011;4490;49.072;8.804;2023-02-12T06:25:48;31.13;;;21.57;;
8909;SDS011;4490;49.072;8.804;2023-02-12T06:28:15;33.23;;;22.33;;
8909;SDS011;4490;49.072;8.804;2023-02-12T06:30:41;34.87;;;23.53;;
8909;SDS011;4490;49.072;8.804;2023-02-12T06:33:06;33.13;;;22.60;;
8909;SDS011;4490;49.072;8.804;2023-02-12T06:35:35;37.40;;;23.47;;
8909;SDS011;4490;49.072;8.804;2023-02-12T06:38:01;39.13;;;25.50;;
8909;SDS011;4490;49.072;8.804;2023-02-12T06:40:26;42.33;;;28.47;;
8909;SDS011;4490;49.072;8.804;2023-02-12T06:42:52;43.27;;;27.87;;
8909;SDS011;4490;49.072;8.804;2023-02-12T06:45:18;41.27;;;28.63;;
8909;SDS011;4490;49.072;8.804;2023-02-12T06:47:43;43.93;;;30.20;;
8909;SDS011;4490;49.072;8.804;2023-02-12T06:50:09;47.73;;;31.63;;
8909;SDS011;4490;49.072;8.804;2023-02-12T06:52:35;43.63;;;29.10;;
8909;SDS011;4490;49.072;8.804;2023-02-12T06:55:01;46.43;;;29.80;;
8909;SDS011;4490;49.072;8.804;2023-02-12T06:57:27;45.10;;;30.20;;
8909;SDS011;4490;49.072;8.804;2023-02-12T06:59:53;47.17;;;31.30;;
8909;SDS011;4490;49.072;8.804;2023-02-12T07:02:19;47.93;;;31.97;;
8909;SDS011;4490;49.072;8.804;2023-02-12T07:04:45;48.17;;;32.30;;
8909;SDS011;4490;49.072;8.804;2023-02-12T07:07:10;47.30;;;32.07;;
8909;SDS011;4490;49.072;8.804;2023-02-12T07:09:36;49.67;;;32.97;;
8909;SDS011;4490;49.072;8.804;2023-02-12T07:12:02;48.67;;;33.53;;
8909;SDS011;4490;49.072;8.804;2023-02-12T07:14:28;46.77;;;32.83;;
8909;SDS011;4490;49.072;8.804;2023-02-12T07:16:54;48.20;;;33.30;;
8909;SDS011;4490;49.072;8.804;2023-02-12T07:19:20;48.70;;;33.83;;
8909;SDS011;4490;49.072;8.804;2023-02-12T07:21:46;46.63;;;33.20;;
8909;SDS011;4490;49.072;8.804;2023-02-12T07:24:12;48.07;;;35.67;;
8909;SDS011;4490;49.072;8.804;2023-02-12T07:26:38;44.53;;;32.93;;
8909;SDS011;4490;49.072;8.804;2023-02-12T07:29:04;51.23;;;34.07;;
8909;SDS011;4490;49.072;8.804;2023-02-12T07:31:30;49.40;;;34.83;;
8909;SDS011;4490;49.072;8.804;2023-02-12T07:33:56;48.30;;;34.23;;
8909;SDS011;4490;49.072;8.804;2023-02-12T07:36:23;47.30;;;34.33;;
8909;SDS011;4490;49.072;8.804;2023-02-12T07:38:50;52.93;;;35.10;;
8909;SDS011;4490;49.072;8.804;2023-02-12T07:41:18;46.87;;;33.83;;
8909;SDS011;4490;49.072;8.804;2023-02-12T07:43:51;47.13;;;34.20;;
8909;SDS011;4490;49.072;8.804;2023-02-12T07:46:23;47.77;;;34.30;;
8909;SDS011;4490;49.072;8.804;2023-02-12T07:48:54;48.13;;;33.70;;
8909;SDS011;4490;49.072;8.804;2023-02-12T07:51:21;44.47;;;31.93;;
8909;SDS011;4490;49.072;8.804;2023-02-12T07:53:47;48.53;;;33.03;;
8909;SDS011;4490;49.072;8.804;2023-02-12T07:56:14;44.87;;;33.50;;
8909;SDS011;4490;49.072;8.804;2023-02-12T07:58:42;44.60;;;32.83;;
8909;SDS011;4490;49.072;8.804;2023-02-12T08:01:10;45.60;;;33.13;;
8909;SDS011;4490;49.072;8.804;2023-02-12T08:03:52;45.33;;;33.13;;
8909;SDS011;4490;49.072;8.804;2023-02-12T08:06:22;41.90;;;31.67;;
8909;SDS011;4490;49.072;8.804;2023-02-12T08:08:50;46.23;;;33.13;;
8909;SDS011;4490;49.072;8.804;2023-02-12T08:11:16;47.43;;;33.77;;
8909;SDS011;4490;49.072;8.804;2023-02-12T08:13:43;45.10;;;33.73;;
8909;SDS011;4490;49.072;8.804;2023-02-12T08:16:13;44.40;;;33.50;;
8909;SDS011;4490;49.072;8.804;2023-02-12T08:18:41;46.77;;;33.27;;
8909;SDS011;4490;49.072;8.804;2023-02-12T08:21:11;46.77;;;35.10;;
8909;SDS011;4490;49.072;8.804;2023-02-12T08:23:42;43.70;;;34.60;;
8909;SDS011;4490;49.072;8.804;2023-02-12T08:28:38;47.80;;;33.63;;
8909;SDS011;4490;49.072;8.804;2023-02-12T08:31:11;45.17;;;34.10;;
8909;SDS011;4490;49.072;8.804;2023-02-12T08:33:38;49.70;;;34.40;;
8909;SDS011;4490;49.072;8.804;2023-02-12T08:36:05;47.90;;;34.70;;
8909;SDS011;4490;49.072;8.804;2023-02-12T08:38:33;46.47;;;33.20;;
8909;SDS011;4490;49.072;8.804;2023-02-12T08:41:03;47.90;;;33.77;;
8909;SDS011;4490;49.072;8.804;2023-02-12T08:43:31;50.27;;;34.47;;
8909;SDS011;4490;49.072;8.804;2023-02-12T08:46:31;49.13;;;34.30;;
8909;SDS011;4490;49.072;8.804;2023-02-12T08:49:00;48.17;;;35.20;;
8909;SDS011;4490;49.072;8.804;2023-02-12T08:51:32;47.60;;;34.73;;
8909;SDS011;4490;49.072;8.804;2023-02-12T08:54:00;48.27;;;34.57;;
8909;SDS011;4490;49.072;8.804;2023-02-12T08:56:28;50.07;;;33.50;;
8909;SDS011;4490;49.072;8.804;2023-02-12T08:58:58;46.97;;;34.30;;
8909;SDS011;4490;49.072;8.804;2023-02-12T09:01:26;47.03;;;34.73;;
8909;SDS011;4490;49.072;8.804;2023-02-12T09:03:54;48.63;;;34.67;;
8909;SDS011;4490;49.072;8.804;2023-02-12T09:06:21;43.77;;;34.23;;
8909;SDS011;4490;49.072;8.804;2023-02-12T09:08:48;52.27;;;34.13;;
8909;SDS011;4490;49.072;8.804;2023-02-12T09:11:18;45.90;;;34.00;;
8909;SDS011;4490;49.072;8.804;2023-02-12T09:13:54;44.40;;;35.17;;
8909;SDS011;4490;49.072;8.804;2023-02-12T09:16:20;45.53;;;33.67;;
8909;SDS011;4490;49.072;8.804;2023-02-12T09:18:46;47.47;;;34.80;;
8909;SDS011;4490;49.072;8.804;2023-02-12T09:21:12;49.80;;;35.37;;
8909;SDS011;4490;49.072;8.804;2023-02-12T09:23:40;43.83;;;33.57;;
8909;SDS011;4490;49.072;8.804;2023-02-12T09:26:08;49.67;;;34.80;;
8909;SDS011;4490;49.072;8.804;2023-02-12T09:28:36;47.73;;;34.73;;
8909;SDS011;4490;49.072;8.804;2023-02-12T09:31:09;44.30;;;33.93;;
8909;SDS011;4490;49.072;8.804;2023-02-12T09:33:37;47.87;;;34.77;;
8909;SDS011;4490;49.072;8.804;2023-02-12T09:36:03;52.37;;;35.80;;
8909;SDS011;4490;49.072;8.804;2023-02-12T09:38:31;48.83;;;35.80;;
8909;SDS011;4490;49.072;8.804;2023-02-12T09:43:47;49.10;;;37.03;;
8909;SDS011;4490;49.072;8.804;2023-02-12T09:46:31;45.23;;;35.23;;
8909;SDS011;4490;49.072;8.804;2023-02-12T09:51:53;49.33;;;35.60;;
8909;SDS011;4490;49.072;8.804;2023-02-12T09:54:20;51.73;;;36.60;;
8909;SDS011;4490;49.072;8.804;2023-02-12T09:56:51;45.20;;;37.00;;
8909;SDS011;4490;49.072;8.804;2023-02-12T09:59:42;50.70;;;36.43;;
8909;SDS011;4490;49.072;8.804;2023-02-12T10:02:13;49.03;;;37.27;;
8909;SDS011;4490;49.072;8.804;2023-02-12T10:04:42;52.80;;;37.47;;
8909;SDS011;4490;49.072;8.804;2023-02-12T10:10:01;49.23;;;36.50;;
8909;SDS011;4490;49.072;8.804;2023-02-12T10:26:47;53.03;;;37.13;;
8909;SDS011;4490;49.072;8.804;2023-02-12T10:29:21;46.73;;;34.27;;
8909;SDS011;4490;49.072;8.804;2023-02-12T10:32:02;48.77;;;34.37;;
8909;SDS011;4490;49.072;8.804;2023-02-12T10:34:34;48.87;;;36.43;;
8909;SDS011;4490;49.072;8.804;2023-02-12T10:37:08;44.77;;;32.60;;
8909;SDS011;4490;49.072;8.804;2023-02-12T10:39:48;42.50;;;31.10;;
8909;SDS011;4490;49.072;8.804;2023-02-12T10:42:20;42.87;;;31.40;;
8909;SDS011;4490;49.072;8.804;2023-02-12T10:45:01;42.87;;;31.77;;
8909;SDS011;4490;49.072;8.804;2023-02-12T10:47:27;45.23;;;31.83;;
8909;SDS011;4490;49.072;8.804;2023-02-12T10:50:06;45.20;;;32.47;;
8909;SDS011;4490;49.072;8.804;2023-02-12T10:53:00;48.50;;;32.63;;
8909;SDS011;4490;49.072;8.804;2023-02-12T10:57:58;41.63;;;30.17;;
8909;SDS011;4490;49.072;8.804;2023-02-12T11:03:00;40.67;;;29.37;;
8909;SDS011;4490;49.072;8.804;2023-02-12T11:05:43;37.37;;;27.27;;
8909;SDS011;4490;49.072;8.804;2023-02-12T11:10:53;36.53;;;26.03;;
8909;SDS011;4490;49.072;8.804;2023-02-12T11:13:23;38.87;;;27.00;;
8909;SDS011;4490;49.072;8.804;2023-02-12T11:15:50;33.73;;;25.90;;
8909;SDS011;4490;49.072;8.804;2023-02-12T11:18:24;37.37;;;26.03;;
8909;SDS011;4490;49.072;8.804;2023-02-12T11:25:57;28.43;;;20.17;;
8909;SDS011;4490;49.072;8.804;2023-02-12T11:28:29;28.00;;;19.93;;
8909;SDS011;4490;49.072;8.804;2023-02-12T11:30:57;28.00;;;18.67;;
8909;SDS011;4490;49.072;8.804;2023-02-12T11:33:33;28.23;;;19.33;;
8909;SDS011;4490;49.072;8.804;2023-02-12T11:38:38;24.00;;;17.60;;
8909;SDS011;4490;49.072;8.804;2023-02-12T11:41:24;27.13;;;18.67;;
8909;SDS011;4490;49.072;8.804;2023-02-12T11:44:47;24.47;;;17.90;;
8909;SDS011;4490;49.072;8.804;2023-02-12T11:47:02;24.70;;;19.10;;
8909;SDS011;4490;49.072;8.804;2023-02-12T11:49:33;21.20;;;16.73;;
8909;SDS011;4490;49.072;8.804;2023-02-12T11:52:03;23.00;;;17.37;;
8909;SDS011;4490;49.072;8.804;2023-02-12T11:54:33;21.20;;;17.07;;
8909;SDS011;4490;49.072;8.804;2023-02-12T11:57:09;23.83;;;17.50;;
8909;SDS011;4490;49.072;8.804;2023-02-12T11:59:55;23.10;;;16.50;;
8909;SDS011;4490;49.072;8.804;2023-02-12T12:02:24;19.10;;;16.07;;
8909;SDS011;4490;49.072;8.804;2023-02-12T12:05:00;21.00;;;15.13;;
8909;SDS011;4490;49.072;8.804;2023-02-12T12:07:33;16.10;;;12.03;;
8909;SDS011;4490;49.072;8.804;2023-02-12T12:10:17;18.57;;;13.87;;
8909;SDS011;4490;49.072;8.804;2023-02-12T12:12:57;20.43;;;15.87;;
8909;SDS011;4490;49.072;8.804;2023-02-12T12:15:29;21.90;;;16.37;;
8909;SDS011;4490;49.072;8.804;2023-02-12T12:24:05;15.33;;;12.10;;
8909;SDS011;4490;49.072;8.804;2023-02-12T12:30:10;14.17;;;10.70;;
8909;SDS011;4490;49.072;8.804;2023-02-12T12:32:56;10.87;;;8.93;;
8909;SDS011;4490;49.072;8.804;2023-02-12T12:35:31;10.63;;;8.03;;
8909;SDS011;4490;49.072;8.804;2023-02-12T12:40:59;9.93;;;7.50;;
8909;SDS011;4490;49.072;8.804;2023-02-12T12:57:04;8.43;;;7.47;;
8909;SDS011;4490;49.072;8.804;2023-02-12T13:05:18;11.60;;;9.47;;
8909;SDS011;4490;49.072;8.804;2023-02-12T13:10:56;11.33;;;10.17;;
8909;SDS011;4490;49.072;8.804;2023-02-12T13:13:32;11.67;;;9.97;;
8909;SDS011;4490;49.072;8.804;2023-02-12T13:16:25;12.67;;;9.90;;
8909;SDS011;4490;49.072;8.804;2023-02-12T13:24:29;12.73;;;10.77;;
8909;SDS011;4490;49.072;8.804;2023-02-12T13:27:04;13.10;;;10.63;;
8909;SDS011;4490;49.072;8.804;2023-02-12T13:29:52;13.30;;;10.63;;
8909;SDS011;4490;49.072;8.804;2023-02-12T13:32:48;13.57;;;11.70;;
8909;SDS011;4490;49.072;8.804;2023-02-12T13:35:20;14.23;;;12.17;;
8909;SDS011;4490;49.072;8.804;2023-02-12T13:37:48;14.30;;;12.10;;
8909;SDS011;4490;49.072;8.804;2023-02-12T13:40:18;15.10;;;12.07;;
8909;SDS011;4490;49.072;8.804;2023-02-12T13:51:06;12.93;;;11.30;;
8909;SDS011;4490;49.072;8.804;2023-02-12T13:56:28;12.97;;;10.83;;
8909;SDS011;4490;49.072;8.804;2023-02-12T13:59:03;10.20;;;8.43;;
8909;SDS011;4490;49.072;8.804;2023-02-12T14:01:51;12.40;;;10.00;;
8909;SDS011;4490;49.072;8.804;2023-02-12T14:06:57;10.70;;;8.47;;
8909;SDS011;4490;49.072;8.804;2023-02-12T14:09:29;10.33;;;9.13;;
8909;SDS011;4490;49.072;8.804;2023-02-12T14:11:59;10.90;;;8.77;;
8909;SDS011;4490;49.072;8.804;2023-02-12T14:27:47;7.07;;;6.37;;
8909;SDS011;4490;49.072;8.804;2023-02-12T14:37:58;8.00;;;6.00;;
8909;SDS011;4490;49.072;8.804;2023-02-12T14:43:20;7.37;;;6.33;;
8909;SDS011;4490;49.072;8.804;2023-02-12T14:49:00;8.20;;;6.20;;
8909;SDS011;4490;49.072;8.804;2023-02-12T14:51:35;6.57;;;5.87;;
8909;SDS011;4490;49.072;8.804;2023-02-12T14:54:03;6.60;;;5.90;;
8909;SDS011;4490;49.072;8.804;2023-02-12T14:56:38;5.40;;;4.90;;
8909;SDS011;4490;49.072;8.804;2023-02-12T14:59:10;5.00;;;4.50;;
8909;SDS011;4490;49.072;8.804;2023-02-12T15:01:42;5.30;;;4.80;;
8909;SDS011;4490;49.072;8.804;2023-02-12T15:04:13;5.30;;;4.80;;
8909;SDS011;4490;49.072;8.804;2023-02-12T15:06:53;5.00;;;4.53;;
8909;SDS011;4490;49.072;8.804;2023-02-12T15:09:32;5.20;;;4.60;;
8909;SDS011;4490;49.072;8.804;2023-02-12T15:15:14;5.30;;;4.80;;
8909;SDS011;4490;49.072;8.804;2023-02-12T15:17:50;5.20;;;4.70;;
8909;SDS011;4490;49.072;8.804;2023-02-12T15:20:29;4.87;;;4.37;;
8909;SDS011;4490;49.072;8.804;2023-02-12T15:23:04;5.63;;;4.47;;
8909;SDS011;4490;49.072;8.804;2023-02-12T15:26:15;4.50;;;4.10;;
8909;SDS011;4490;49.072;8.804;2023-02-12T15:28:55;5.20;;;4.70;;
8909;SDS011;4490;49.072;8.804;2023-02-12T15:31:24;4.80;;;4.33;;
8909;SDS011;4490;49.072;8.804;2023-02-12T15:33:53;5.43;;;4.93;;
8909;SDS011;4490;49.072;8.804;2023-02-12T15:36:21;5.13;;;4.63;;
8909;SDS011;4490;49.072;8.804;2023-02-12T15:39:13;4.80;;;4.30;;
8909;SDS011;4490;49.072;8.804;2023-02-12T15:41:39;5.47;;;4.67;;
8909;SDS011;4490;49.072;8.804;2023-02-12T15:46:56;5.83;;;5.10;;
8909;SDS011;4490;49.072;8.804;2023-02-12T15:49:26;5.87;;;5.00;;
8909;SDS011;4490;49.072;8.804;2023-02-12T15:52:18;5.57;;;5.00;;
8909;SDS011;4490;49.072;8.804;2023-02-12T15:54:48;5.77;;;4.90;;
8909;SDS011;4490;49.072;8.804;2023-02-12T15:57:21;5.33;;;4.63;;
8909;SDS011;4490;49.072;8.804;2023-02-12T15:59:51;6.00;;;5.27;;
8909;SDS011;4490;49.072;8.804;2023-02-12T16:02:24;6.20;;;5.60;;
8909;SDS011;4490;49.072;8.804;2023-02-12T16:04:52;6.00;;;5.40;;
8909;SDS011;4490;49.072;8.804;2023-02-12T16:07:19;6.87;;;6.17;;
8909;SDS011;4490;49.072;8.804;2023-02-12T16:09:46;9.10;;;6.90;;
8909;SDS011;4490;49.072;8.804;2023-02-12T16:12:14;7.67;;;6.77;;
8909;SDS011;4490;49.072;8.804;2023-02-12T16:14:50;8.27;;;6.30;;
8909;SDS011;4490;49.072;8.804;2023-02-12T16:19:57;9.97;;;7.27;;
8909;SDS011;4490;49.072;8.804;2023-02-12T16:24:57;9.83;;;7.23;;
8909;SDS011;4490;49.072;8.804;2023-02-12T16:27:26;10.57;;;7.27;;
8909;SDS011;4490;49.072;8.804;2023-02-12T16:29:58;6.90;;;5.70;;
8909;SDS011;4490;49.072;8.804;2023-02-12T16:32:46;7.97;;;5.80;;
8909;SDS011;4490;49.072;8.804;2023-02-12T16:37:42;7.70;;;5.70;;
8909;SDS011;4490;49.072;8.804;2023-02-12T16:40:30;7.23;;;6.10;;
8909;SDS011;4490;49.072;8.804;2023-02-12T16:42:58;6.57;;;5.83;;
8909;SDS011;4490;49.072;8.804;2023-02-12T16:48:05;8.43;;;6.13;;
8909;SDS011;4490;49.072;8.804;2023-02-12T16:50:34;7.43;;;6.03;;
8909;SDS011;4490;49.072;8.804;2023-02-12T16:53:07;7.07;;;5.83;;
8909;SDS011;4490;49.072;8.804;2023-02-12T16:55:52;7.17;;;5.93;;
8909;SDS011;4490;49.072;8.804;2023-02-12T16:58:18;7.27;;;6.13;;
8909;SDS011;4490;49.072;8.804;2023-02-12T17:00:43;7.27;;;6.03;;
8909;SDS011;4490;49.072;8.804;2023-02-12T17:03:10;10.23;;;7.23;;
8909;SDS011;4490;49.072;8.804;2023-02-12T17:05:37;9.60;;;7.70;;
8909;SDS011;4490;49.072;8.804;2023-02-12T17:08:05;11.73;;;8.10;;
8909;SDS011;4490;49.072;8.804;2023-02-12T17:10:36;10.57;;;7.77;;
8909;SDS011;4490;49.072;8.804;2023-02-12T17:13:02;9.73;;;6.93;;
8909;SDS011;4490;49.072;8.804;2023-02-12T17:15:29;9.40;;;7.07;;
8909;SDS011;4490;49.072;8.804;2023-02-12T17:17:59;7.57;;;6.27;;
8909;SDS011;4490;49.072;8.804;2023-02-12T17:20:25;8.97;;;6.50;;
8909;SDS011;4490;49.072;8.804;2023-02-12T17:22:51;7.07;;;5.90;;
8909;SDS011;4490;49.072;8.804;2023-02-12T17:25:19;8.83;;;6.97;;
8909;SDS011;4490;49.072;8.804;2023-02-12T17:27:45;11.37;;;7.00;;
8909;SDS011;4490;49.072;8.804;2023-02-12T17:30:16;8.63;;;7.13;;
8909;SDS011;4490;49.072;8.804;2023-02-12T17:32:44;9.57;;;7.00;;
8909;SDS011;4490;49.072;8.804;2023-02-12T17:35:10;8.90;;;7.60;;
8909;SDS011;4490;49.072;8.804;2023-02-12T17:37:36;8.23;;;6.97;;
8909;SDS011;4490;49.072;8.804;2023-02-12T17:40:02;10.63;;;7.83;;
8909;SDS011;4490;49.072;8.804;2023-02-12T17:42:28;10.17;;;7.97;;
8909;SDS011;4490;49.072;8.804;2023-02-12T17:44:53;10.47;;;8.03;;
8909;SDS011;4490;49.072;8.804;2023-02-12T17:47:19;11.30;;;8.00;;
8909;SDS011;4490;49.072;8.804;2023-02-12T17:49:45;10.17;;;8.43;;
8909;SDS011;4490;49.072;8.804;2023-02-12T17:52:10;9.07;;;7.63;;
8909;SDS011;4490;49.072;8.804;2023-02-12T17:54:36;9.27;;;7.40;;
8909;SDS011;4490;49.072;8.804;2023-02-12T17:57:02;8.90;;;7.47;;
8909;SDS011;4490;49.072;8.804;2023-02-12T17:59:27;10.07;;;8.00;;
8909;SDS011;4490;49.072;8.804;2023-02-12T18:01:53;9.03;;;6.90;;
8909;SDS011;4490;49.072;8.804;2023-02-12T18:04:20;10.60;;;7.57;;
8909;SDS011;4490;49.072;8.804;2023-02-12T18:06:45;12.40;;;9.27;;
8909;SDS011;4490;49.072;8.804;2023-02-12T18:09:11;13.47;;;10.60;;
8909;SDS011;4490;49.072;8.804;2023-02-12T18:11:37;13.80;;;11.10;;
8909;SDS011;4490;49.072;8.804;2023-02-12T18:14:04;16.90;;;12.30;;
8909;SDS011;4490;49.072;8.804;2023-02-12T18:16:31;18.07;;;13.70;;
8909;SDS011;4490;49.072;8.804;2023-02-12T18:18:58;19.63;;;13.77;;
8909;SDS011;4490;49.072;8.804;2023-02-12T18:21:25;18.00;;;13.30;;
8909;SDS011;4490;49.072;8.804;2023-02-12T18:23:51;16.67;;;13.07;;
8909;SDS011;4490;49.072;8.804;2023-02-12T18:26:17;13.97;;;10.67;;